Time;durP1;ratioP1;P1;durP2;ratioP2;P2;SDS_P1;SDS_P2;PMS_P1;PMS_P2;Temp;Humidity;BMP_temperature;BMP_pressure;BME280_temperature;BME280_humidity;BME280_pressure;Samples;Min_cycle;Max_cycle;Signal;HPM_P1;HPM_P2
2022/08/02 00:02:20;;;;;;;7.83;7.43;;;;;;;19.09;50.28;92717.97;5031622;28;20219;-70
2022/08/02 00:04:46;;;;;;;9.07;8.60;;;;;;;19.17;50.59;92721.63;5032609;28;20211;-70
2022/08/02 00:07:12;;;;;;;8.90;8.20;;;;;;;19.14;50.64;92716.97;5028846;28;20248;-70
2022/08/02 00:09:38;;;;;;;8.97;8.53;;;;;;;19.27;50.91;92721.19;5032597;28;20216;-70
2022/08/02 00:12:03;;;;;;;8.90;8.40;;;;;;;19.25;50.47;92715.47;5029112;28;20194;-71
2022/08/02 00:14:29;;;;;;;9.33;8.83;;;;;;;19.28;50.25;92711.41;5032062;28;20193;-71
2022/08/02 00:16:54;;;;;;;9.23;8.70;;;;;;;19.19;50.83;92699.00;5031210;28;20227;-71
2022/08/02 00:19:20;;;;;;;8.80;8.40;;;;;;;19.20;50.91;92713.03;5032832;28;20193;-70
2022/08/02 00:21:45;;;;;;;9.00;8.60;;;;;;;19.08;50.88;92702.41;5030305;28;20195;-71
2022/08/02 00:24:11;;;;;;;8.73;8.33;;;;;;;19.20;51.12;92718.31;5027770;28;20225;-71
2022/08/02 00:26:36;;;;;;;8.27;7.87;;;;;;;19.18;51.16;92705.41;5028145;28;20218;-71
2022/08/02 00:29:02;;;;;;;9.30;8.77;;;;;;;19.17;50.72;92698.56;5032221;28;20247;-70
2022/08/02 00:31:27;;;;;;;7.87;7.57;;;;;;;19.31;51.08;92708.88;5028032;28;20214;-70
2022/08/02 00:33:53;;;;;;;8.77;8.37;;;;;;;19.24;50.52;92698.00;5030116;28;20248;-70
2022/08/02 00:36:18;;;;;;;9.07;8.57;;;;;;;19.13;50.99;92681.00;5032807;28;20223;-71
2022/08/02 00:38:45;;;;;;;8.87;8.23;;;;;;;19.37;49.76;92696.97;5031522;28;20237;-70
2022/08/02 00:41:16;;;;;;;8.80;8.30;;;;;;;19.27;49.47;92684.13;5032517;28;20201;-71
2022/08/02 00:43:43;;;;;;;7.80;7.40;;;;;;;19.40;49.18;92695.53;5031392;28;20280;-71
2022/08/02 00:46:09;;;;;;;8.17;7.77;;;;;;;19.49;48.66;92704.13;5028706;28;20254;-70
2022/08/02 00:48:34;;;;;;;9.10;8.60;;;;;;;19.34;48.47;92687.03;5031324;28;20234;-70
2022/08/02 00:51:00;;;;;;;8.97;8.27;;;;;;;19.26;49.44;92705.63;5030719;28;20203;-70
2022/08/02 00:53:26;;;;;;;8.93;8.33;;;;;;;19.22;50.22;92702.09;5030446;28;20264;-70
2022/08/02 00:55:51;;;;;;;8.93;8.43;;;;;;;18.76;50.01;92656.38;5031581;28;20281;-70
2022/08/02 00:58:17;;;;;;;9.20;8.70;;;;;;;19.01;50.45;92692.38;5030256;28;20227;-70
2022/08/02 01:00:42;;;;;;;8.67;8.27;;;;;;;18.93;51.32;92698.50;5031243;28;20187;-73
2022/08/02 01:03:08;;;;;;;9.63;8.93;;;;;;;18.95;49.07;92683.09;5030460;28;20227;-70
2022/08/02 01:05:33;;;;;;;9.73;9.13;;;;;;;19.02;49.57;92699.19;5031584;28;20196;-70
2022/08/02 01:07:59;;;;;;;8.47;8.07;;;;;;;19.05;49.41;92689.84;5031178;28;20262;-70
2022/08/02 01:10:24;;;;;;;9.03;8.47;;;;;;;19.05;48.44;92695.13;5024538;28;20185;-71
2022/08/02 01:12:50;;;;;;;8.77;8.27;;;;;;;19.08;47.88;92689.94;5030886;28;20231;-71
2022/08/02 01:15:16;;;;;;;8.13;7.73;;;;;;;19.02;49.67;92690.47;5030906;28;20222;-71
2022/08/02 01:17:58;;;;;;;9.13;8.60;;;;;;;19.06;47.99;92681.56;5029369;28;20227;-70
2022/08/02 01:20:24;;;;;;;9.63;8.93;;;;;;;19.04;48.52;92688.28;5031230;28;20188;-71
2022/08/02 01:23:08;;;;;;;8.33;7.93;;;;;;;18.97;48.96;92685.41;5030432;28;20247;-69
2022/08/02 01:26:08;;;;;;;8.37;7.93;;;;;;;18.72;48.58;92644.13;5031181;28;20276;-70
2022/08/02 01:28:39;;;;;;;8.37;7.97;;;;;;;19.00;48.56;92684.75;5052887;28;20314;-71
2022/08/02 01:31:24;;;;;;;8.53;8.13;;;;;;;18.93;49.14;92671.28;5029914;28;20184;-70
2022/08/02 01:34:16;;;;;;;9.17;8.67;;;;;;;19.01;48.47;92688.94;5024675;28;20231;-69
2022/08/02 01:36:47;;;;;;;8.30;7.90;;;;;;;18.96;49.24;92689.13;5024431;28;20234;-71
2022/08/02 01:39:16;;;;;;;9.50;9.00;;;;;;;18.85;52.65;92680.06;5029669;28;20240;-71
2022/08/02 01:41:43;;;;;;;8.10;7.70;;;;;;;18.42;54.95;92664.63;5030092;28;20350;-70
2022/08/02 01:44:12;;;;;;;8.87;8.43;;;;;;;18.42;56.45;92687.63;5030252;28;20222;-71
2022/08/02 01:46:40;;;;;;;8.33;7.90;;;;;;;18.23;58.07;92696.00;5030039;28;20251;-70
2022/08/02 01:49:13;;;;;;;8.43;8.03;;;;;;;17.84;60.00;92679.81;5030799;28;20231;-71
2022/08/02 01:54:29;;;;;;;9.07;8.67;;;;;;;17.68;61.25;92665.63;5026678;28;20235;-71
2022/08/02 01:56:56;;;;;;;9.17;8.73;;;;;;;17.63;61.61;92674.50;5029633;28;20204;-71
2022/08/02 01:59:23;;;;;;;10.13;9.57;;;;;;;17.40;62.66;92663.41;5029909;28;20918;-70
2022/08/02 02:01:52;;;;;;;8.77;8.37;;;;;;;17.31;63.87;92706.75;5026005;28;20179;-70
2022/08/02 02:04:20;;;;;;;11.10;10.37;;;;;;;17.27;63.63;92674.97;5028806;28;20249;-70
2022/08/02 02:06:47;;;;;;;8.77;8.37;;;;;;;17.10;64.98;92675.03;5030548;28;20218;-71
2022/08/02 02:09:14;;;;;;;10.07;9.47;;;;;;;16.90;67.17;92701.31;5029089;28;20226;-70
2022/08/02 02:11:45;;;;;;;10.20;9.70;;;;;;;16.74;67.36;92677.31;5029459;28;20175;-70
2022/08/02 02:14:12;;;;;;;9.07;8.47;;;;;;;16.91;67.71;92687.03;5028595;28;20218;-71
2022/08/02 02:16:41;;;;;;;9.67;9.07;;;;;;;16.79;67.61;92665.81;5029125;28;20240;-70
2022/08/02 02:19:08;;;;;;;10.03;9.47;;;;;;;16.80;68.32;92694.50;5029346;28;20303;-71
2022/08/02 02:21:33;;;;;;;9.30;8.80;;;;;;;16.75;68.69;92692.03;5029573;28;20210;-70
2022/08/02 02:23:59;;;;;;;10.03;9.30;;;;;;;16.70;68.88;92692.19;5028228;28;20223;-70
2022/08/02 02:26:26;;;;;;;9.83;9.33;;;;;;;16.71;68.16;92690.34;5029118;28;20195;-71
2022/08/02 02:28:53;;;;;;;10.10;9.50;;;;;;;16.43;69.61;92692.53;5029286;28;20262;-70
2022/08/02 02:31:20;;;;;;;10.33;9.73;;;;;;;16.52;69.91;92698.59;5023417;28;20641;-70
2022/08/02 02:33:55;;;;;;;10.97;10.27;;;;;;;16.38;69.27;92676.88;5028344;28;20231;-69
2022/08/02 02:36:22;;;;;;;10.03;9.53;;;;;;;16.35;70.24;92679.34;5029888;28;20206;-70
2022/08/02 02:38:49;;;;;;;9.27;8.77;;;;;;;16.43;69.84;92689.91;5029384;28;20243;-70
2022/08/02 02:41:17;;;;;;;9.13;8.63;;;;;;;16.25;71.09;92669.91;5028661;28;20194;-71
2022/08/02 02:43:44;;;;;;;9.17;8.43;;;;;;;16.34;71.02;92691.78;5029031;28;20222;-71
2022/08/02 02:46:11;;;;;;;10.00;9.40;;;;;;;16.36;71.06;92686.94;5028994;28;20704;-70
2022/08/02 02:48:36;;;;;;;9.53;9.03;;;;;;;16.47;70.66;92698.00;5029846;28;20222;-70
2022/08/02 02:51:04;;;;;;;8.97;8.57;;;;;;;16.25;70.90;92677.81;5029048;28;20179;-70
2022/08/02 02:53:30;;;;;;;10.43;9.73;;;;;;;16.18;70.54;92677.50;5029137;28;20222;-71
2022/08/02 02:55:56;;;;;;;9.87;9.37;;;;;;;16.09;70.99;92672.22;5029597;28;20202;-70
2022/08/02 02:58:22;;;;;;;9.40;8.90;;;;;;;15.92;71.30;92655.66;5028932;28;20219;-70
2022/08/02 03:03:33;;;;;;;9.53;9.03;;;;;;;16.09;72.10;92689.91;5029230;28;20229;-72
2022/08/02 03:05:59;;;;;;;9.60;9.10;;;;;;;16.19;70.14;92684.31;5026869;28;20201;-70
2022/08/02 03:08:24;;;;;;;10.47;9.97;;;;;;;16.14;71.57;92688.97;5025327;28;20214;-71
2022/08/02 03:10:50;;;;;;;9.60;9.10;;;;;;;16.11;71.74;92695.63;5028601;28;20187;-70
2022/08/02 03:13:17;;;;;;;10.30;9.50;;;;;;;15.93;71.96;92663.25;5028724;28;20214;-71
2022/08/02 03:15:45;;;;;;;10.30;9.60;;;;;;;16.08;71.27;92697.03;5029006;28;20233;-71
2022/08/02 03:18:29;;;;;;;10.60;10.10;;;;;;;16.23;70.90;92693.16;5029002;28;20222;-72
2022/08/02 03:20:59;;;;;;;9.90;9.40;;;;;;;16.26;69.47;92689.13;5029269;28;20183;-70
2022/08/02 03:23:24;;;;;;;9.13;8.73;;;;;;;16.32;69.92;92701.84;5023513;28;20295;-70
2022/08/02 03:25:49;;;;;;;9.80;9.30;;;;;;;16.21;70.68;92700.59;5029444;28;20202;-69
2022/08/02 03:28:15;;;;;;;9.00;8.33;;;;;;;16.52;69.67;92697.81;5028605;28;20249;-72
2022/08/02 03:30:40;;;;;;;9.77;9.07;;;;;;;16.58;68.30;92657.81;5029408;28;20186;-71
2022/08/02 03:33:05;;;;;;;8.90;8.50;;;;;;;16.73;68.30;92690.81;5031241;28;20261;-72
2022/08/02 03:35:32;;;;;;;9.63;8.93;;;;;;;16.66;67.92;92680.75;5033063;28;20191;-71
2022/08/02 03:37:59;;;;;;;9.67;8.97;;;;;;;16.68;68.37;92689.13;5031737;28;20230;-71
2022/08/02 03:40:25;;;;;;;10.33;9.53;;;;;;;16.62;68.20;92658.75;5031991;28;20179;-71
2022/08/02 03:42:51;;;;;;;9.97;9.47;;;;;;;16.74;67.33;92658.06;5032451;28;20282;-71
2022/08/02 03:45:17;;;;;;;8.93;8.53;;;;;;;16.88;67.33;92696.34;5027285;28;20190;-71
2022/08/02 03:47:43;;;;;;;9.70;8.87;;;;;;;16.75;67.75;92684.13;5030289;28;20254;-70
2022/08/02 03:50:12;;;;;;;8.57;7.90;;;;;;;16.80;69.02;92691.88;5032570;28;20201;-71
2022/08/02 03:52:40;;;;;;;10.50;9.87;;;;;;;16.70;69.31;92697.47;5031887;28;20230;-72
2022/08/02 03:55:06;;;;;;;9.67;9.17;;;;;;;16.80;68.94;92696.38;5032952;28;20206;-71
2022/08/02 03:57:32;;;;;;;10.93;9.80;;;;;;;16.71;68.76;92683.22;5031492;28;20230;-71
2022/08/02 03:59:57;;;;;;;9.87;9.13;;;;;;;16.80;68.12;92696.38;5032413;28;20232;-71
2022/08/02 04:02:22;;;;;;;10.27;9.67;;;;;;;16.93;68.50;92719.94;5031787;28;20253;-71
2022/08/02 04:04:48;;;;;;;10.13;9.47;;;;;;;16.87;68.62;92707.97;5032437;28;20210;-70
2022/08/02 04:07:13;;;;;;;10.00;9.40;;;;;;;17.11;66.09;92724.06;5031875;28;20232;-70
2022/08/02 04:09:39;;;;;;;10.77;9.90;;;;;;;17.16;67.54;92733.66;5031302;28;20213;-71
2022/08/02 04:12:04;;;;;;;10.57;9.87;;;;;;;16.89;67.67;92708.44;5031755;28;20195;-71
2022/08/02 04:14:30;;;;;;;10.47;9.83;;;;;;;17.17;66.40;92740.47;5031664;28;20191;-71
2022/08/02 04:17:03;;;;;;;10.60;10.00;;;;;;;17.14;65.32;92725.28;5031254;28;20242;-71
2022/08/02 04:19:34;;;;;;;8.93;8.43;;;;;;;16.95;65.72;92730.91;5032890;28;20202;-71
2022/08/02 04:22:06;;;;;;;11.00;10.10;;;;;;;17.26;65.59;92747.28;5031512;28;20186;-73
2022/08/02 04:24:38;;;;;;;9.67;9.17;;;;;;;17.32;65.30;92750.53;5032169;28;20183;-72
2022/08/02 04:27:05;;;;;;;9.27;8.80;;;;;;;17.45;64.82;92755.66;5030035;28;20197;-70
2022/08/02 04:29:31;;;;;;;10.97;9.97;;;;;;;17.42;65.85;92756.25;5031977;28;20198;-71
2022/08/02 04:31:58;;;;;;;10.70;9.93;;;;;;;17.46;64.21;92751.91;5029740;28;20217;-73
2022/08/02 04:34:23;;;;;;;10.57;9.77;;;;;;;17.25;65.06;92729.13;5031189;28;20776;-71
2022/08/02 04:36:49;;;;;;;10.50;9.80;;;;;;;17.24;66.64;92727.59;5030955;28;20203;-72
2022/08/02 04:39:14;;;;;;;11.23;10.33;;;;;;;17.30;67.61;92742.94;5029682;28;20226;-71
2022/08/02 04:41:42;;;;;;;10.37;9.50;;;;;;;17.00;67.91;92728.13;5026991;28;20176;-71
2022/08/02 04:44:08;;;;;;;10.37;9.73;;;;;;;17.33;67.11;92744.94;5030134;28;20239;-71
2022/08/02 04:46:35;;;;;;;10.33;9.73;;;;;;;17.40;65.63;92726.75;5031187;28;20237;-70
2022/08/02 04:49:01;;;;;;;10.57;9.97;;;;;;;17.71;66.48;92741.56;5030551;28;20242;-70
2022/08/02 04:51:26;;;;;;;10.23;9.63;;;;;;;17.77;66.99;92740.28;5031602;28;20196;-71
2022/08/02 04:53:51;;;;;;;10.80;9.80;;;;;;;17.65;68.70;92725.09;5031045;28;20221;-71
2022/08/02 04:56:17;;;;;;;9.87;9.23;;;;;;;17.91;65.65;92754.03;5031682;28;20209;-71
2022/08/02 04:58:42;;;;;;;9.37;8.77;;;;;;;17.96;66.23;92735.38;5027002;28;20223;-71
2022/08/02 05:01:07;;;;;;;10.73;10.13;;;;;;;18.08;64.75;92740.72;5031830;28;20241;-72
2022/08/02 05:03:33;;;;;;;10.80;9.80;;;;;;;17.85;64.19;92716.47;5031260;28;20242;-70
2022/08/02 05:05:59;;;;;;;9.63;9.13;;;;;;;18.21;62.89;92718.56;5031946;28;20221;-69
2022/08/02 05:08:25;;;;;;;9.73;9.13;;;;;;;18.45;62.82;92732.72;5024316;28;20210;-70
2022/08/02 05:10:51;;;;;;;9.85;9.32;;;;;;;18.80;61.89;92741.13;5028242;28;20457;-70
2022/08/02 05:13:16;;;;;;;10.70;10.10;;;;;;;18.60;62.17;92742.69;5031131;28;20208;-70
2022/08/02 05:15:42;;;;;;;10.40;9.63;;;;;;;18.65;63.05;92754.94;5031025;28;21028;-71
2022/08/02 05:18:07;;;;;;;10.10;9.50;;;;;;;18.73;63.04;92759.38;5031158;28;21074;-71
2022/08/02 05:20:33;;;;;;;10.43;9.80;;;;;;;19.20;61.73;92760.66;5030967;28;20192;-71
2022/08/02 05:22:58;;;;;;;11.10;10.10;;;;;;;19.02;62.43;92738.09;5030093;28;20283;-71
2022/08/02 05:25:24;;;;;;;9.67;9.00;;;;;;;18.77;62.17;92694.19;5030471;28;20181;-71
2022/08/02 05:27:49;;;;;;;11.37;10.67;;;;;;;19.12;62.70;92769.47;5027129;28;20251;-72
2022/08/02 05:30:14;;;;;;;10.60;9.90;;;;;;;19.46;61.79;92763.84;5028070;28;20216;-71
2022/08/02 05:32:49;;;;;;;10.77;9.77;;;;;;;19.62;60.68;92774.56;5028718;28;20318;-71
2022/08/02 05:35:20;;;;;;;10.10;9.50;;;;;;;19.70;59.22;92771.81;5028046;28;20187;-70
2022/08/02 05:37:46;;;;;;;10.23;9.53;;;;;;;19.54;58.79;92760.31;5027975;28;20237;-70
2022/08/02 05:40:13;;;;;;;10.03;9.43;;;;;;;19.99;59.49;92779.56;5028494;28;20218;-68
2022/08/02 05:42:39;;;;;;;9.63;9.00;;;;;;;20.01;57.38;92773.94;5028689;28;20225;-71
2022/08/02 05:45:05;;;;;;;10.00;9.10;;;;;;;19.94;58.89;92779.78;5029544;28;20255;-71
2022/08/02 05:47:30;;;;;;;10.23;9.50;;;;;;;19.86;57.85;92764.75;5025484;28;20257;-69
2022/08/02 05:49:56;;;;;;;10.33;9.47;;;;;;;20.52;56.52;92786.50;5029556;28;20204;-71
2022/08/02 05:52:25;;;;;;;10.87;8.33;;;;;;;21.17;54.99;92793.31;5024697;28;20313;-70
2022/08/02 05:55:12;;;;;;;8.52;7.93;;;;;;;25.27;42.46;92804.16;5029795;28;20245;-70
2022/08/02 05:57:52;;;;;;;8.77;8.20;;;;;;;28.47;35.01;92808.06;5029214;28;20229;-70
2022/08/02 06:00:19;;;;;;;8.77;8.18;;;;;;;29.59;32.74;92814.00;5029443;28;20216;-70
2022/08/02 06:03:15;;;;;;;7.68;7.13;;;;;;;32.34;27.04;92834.63;5029031;28;20241;-69
2022/08/02 06:05:57;;;;;;;7.30;6.82;;;;;;;33.40;25.69;92830.22;5029954;28;20205;-70
2022/08/02 06:08:31;;;;;;;6.70;6.40;;;;;;;33.18;25.19;92831.75;5028257;28;20237;-71
2022/08/02 06:11:00;;;;;;;6.50;6.20;;;;;;;33.26;25.37;92825.03;5029666;28;20258;-71
2022/08/02 06:13:26;;;;;;;6.88;6.47;;;;;;;34.76;22.65;92831.97;5029103;28;20245;-71
2022/08/02 06:15:52;;;;;;;6.88;6.47;;;;;;;33.92;23.68;92829.19;5023556;28;20313;-74
2022/08/02 06:18:18;;;;;;;6.40;6.10;;;;;;;31.46;26.12;92826.13;5028937;28;20253;-75
2022/08/02 06:20:49;;;;;;;6.35;6.05;;;;;;;34.39;23.52;92847.97;5027487;28;20213;-74
2022/08/02 06:23:16;;;;;;;6.50;6.10;;;;;;;34.26;23.10;92845.09;5027562;28;20230;-73
2022/08/02 06:25:45;;;;;;;6.32;6.00;;;;;;;33.00;23.85;92853.72;5028176;28;20209;-71
2022/08/02 06:28:12;;;;;;;6.10;5.70;;;;;;;34.53;22.34;92848.41;5028589;28;20227;-74
2022/08/02 06:30:38;;;;;;;6.63;6.20;;;;;;;33.31;23.99;92848.94;5025424;28;20293;-73
2022/08/02 06:33:03;;;;;;;5.70;5.50;;;;;;;34.89;22.35;92854.56;5028990;28;20227;-74
2022/08/02 06:35:52;;;;;;;6.20;5.90;;;;;;;33.28;23.63;92852.47;5028647;28;20198;-73
2022/08/02 06:38:22;;;;;;;6.00;5.70;;;;;;;30.69;26.06;92851.84;5024200;28;20277;-73
2022/08/02 06:41:14;;;;;;;7.55;7.10;;;;;;;25.82;33.95;92837.25;5029299;28;20186;-73
2022/08/02 06:43:58;;;;;;;6.45;6.15;;;;;;;24.38;37.45;92839.88;5028660;28;20226;-73
2022/08/02 06:46:24;;;;;;;7.28;6.88;;;;;;;23.28;40.30;92834.47;5027470;28;20182;-72
2022/08/02 06:48:50;;;;;;;7.30;6.95;;;;;;;22.93;41.46;92819.63;5028607;28;20258;-72
2022/08/02 06:51:16;;;;;;;7.50;7.18;;;;;;;22.90;41.93;92831.75;5028848;28;20201;-73
2022/08/02 06:53:43;;;;;;;8.20;7.53;;;;;;;22.94;43.65;92832.59;5028180;28;20695;-73
2022/08/02 06:56:08;;;;;;;7.10;6.75;;;;;;;22.78;42.93;92815.13;5028227;28;20216;-73
2022/08/02 06:58:34;;;;;;;6.93;6.63;;;;;;;22.79;42.89;92830.75;5027686;28;20229;-70
2022/08/02 07:00:59;;;;;;;8.15;7.75;;;;;;;22.06;44.53;92829.78;5028627;28;20285;-69
2022/08/02 07:03:25;;;;;;;7.00;6.70;;;;;;;22.01;45.11;92790.16;5028016;28;20208;-73
2022/08/02 07:05:51;;;;;;;7.80;7.28;;;;;;;22.27;44.81;92826.88;5027282;28;20199;-71
2022/08/02 07:08:18;;;;;;;7.30;6.95;;;;;;;22.39;44.91;92827.53;5023206;28;20229;-70
2022/08/02 07:10:44;;;;;;;6.72;6.43;;;;;;;22.56;44.19;92831.75;5028984;28;20185;-71
2022/08/02 07:13:10;;;;;;;7.38;7.07;;;;;;;22.83;44.06;92823.63;5027971;28;20235;-71
2022/08/02 07:15:36;;;;;;;8.10;7.70;;;;;;;22.47;45.21;92804.53;5027367;28;20185;-70
2022/08/02 07:18:05;;;;;;;6.80;6.50;;;;;;;22.55;45.07;92823.00;5047270;28;20500;-69
2022/08/02 07:20:30;;;;;;;6.88;6.47;;;;;;;22.58;44.88;92829.50;5047894;28;20219;-70
2022/08/02 07:22:55;;;;;;;6.75;6.30;;;;;;;22.68;45.43;92829.75;5044989;28;20223;-69
2022/08/02 07:25:21;;;;;;;7.57;7.28;;;;;;;22.56;46.34;92819.22;5045897;28;20187;-69
2022/08/02 07:27:46;;;;;;;8.13;7.72;;;;;;;22.75;45.12;92829.91;5046614;28;20243;-70
2022/08/02 07:30:12;;;;;;;8.55;8.07;;;;;;;22.77;44.89;92817.00;5046410;28;20256;-69
2022/08/02 07:32:37;;;;;;;8.32;7.85;;;;;;;22.80;46.91;92816.31;5047507;28;20239;-71
2022/08/02 07:35:03;;;;;;;7.25;6.95;;;;;;;22.92;45.15;92824.19;5045947;28;20182;-71
2022/08/02 07:37:31;;;;;;;7.85;7.35;;;;;;;22.88;45.92;92822.56;5045464;28;20303;-69
2022/08/02 07:39:57;;;;;;;7.43;7.05;;;;;;;22.96;44.64;92830.34;5045409;28;20185;-70
2022/08/02 07:42:23;;;;;;;7.70;7.32;;;;;;;22.83;46.12;92820.97;5046624;28;20255;-69
2022/08/02 07:44:49;;;;;;;7.63;7.22;;;;;;;23.02;44.67;92828.94;5068704;28;20187;-71
2022/08/02 07:47:14;;;;;;;8.70;8.13;;;;;;;22.97;45.45;92810.59;5046777;28;20267;-72
2022/08/02 07:49:40;;;;;;;8.73;8.23;;;;;;;22.79;44.65;92825.44;5048541;28;20185;-70
2022/08/02 07:52:05;;;;;;;10.68;9.68;;;;;;;23.00;45.76;92819.78;5046718;28;20207;-70
2022/08/02 07:54:31;;;;;;;7.80;7.40;;;;;;;23.08;45.02;92789.50;5047631;28;20260;-71
2022/08/02 07:56:56;;;;;;;7.65;7.35;;;;;;;23.20;44.17;92819.44;5046418;28;20216;-69
2022/08/02 07:59:21;;;;;;;7.78;7.38;;;;;;;23.20;44.76;92830.09;5046465;28;20185;-70
2022/08/02 08:01:48;;;;;;;7.40;7.07;;;;;;;23.23;44.49;92821.41;5046925;28;20215;-69
2022/08/02 08:04:17;;;;;;;7.72;7.32;;;;;;;23.13;44.28;92799.88;5046385;28;20233;-69
2022/08/02 08:06:43;;;;;;;7.18;6.78;;;;;;;23.51;44.11;92821.19;5047105;28;20283;-69
2022/08/02 08:09:09;;;;;;;8.25;7.65;;;;;;;23.12;44.26;92828.41;5045026;28;20225;-70
2022/08/02 08:11:35;;;;;;;7.38;6.97;;;;;;;23.27;45.07;92830.25;5048067;28;20189;-70
2022/08/02 08:14:00;;;;;;;7.45;7.00;;;;;;;23.33;44.37;92831.50;5044825;28;20533;-71
2022/08/02 08:16:27;;;;;;;7.22;6.90;;;;;;;23.38;44.55;92809.91;5047369;28;20228;-70
2022/08/02 08:18:54;;;;;;;10.30;9.48;;;;;;;23.42;44.81;92825.97;5047148;28;20295;-70
2022/08/02 08:21:20;;;;;;;7.60;7.30;;;;;;;23.51;45.42;92835.31;5050982;28;20279;-71
2022/08/02 08:23:45;;;;;;;7.50;6.97;;;;;;;23.26;44.00;92823.41;5050254;28;20244;-70
2022/08/02 08:26:11;;;;;;;7.07;6.78;;;;;;;23.53;42.48;92819.72;5049688;28;20196;-71
2022/08/02 08:28:36;;;;;;;7.45;6.95;;;;;;;23.73;42.94;92826.59;5049873;28;20240;-70
2022/08/02 08:31:01;;;;;;;8.10;7.65;;;;;;;23.63;44.66;92834.38;5050374;28;20219;-70
2022/08/02 08:33:27;;;;;;;6.28;6.05;;;;;;;23.60;43.30;92822.53;5049969;28;20218;-71
2022/08/02 08:35:53;;;;;;;6.82;6.47;;;;;;;23.34;43.12;92825.09;5051367;28;20190;-70
2022/08/02 08:38:19;;;;;;;8.23;7.35;;;;;;;23.15;43.84;92805.63;5049915;28;20259;-70
2022/08/02 08:40:47;;;;;;;9.98;8.23;;;;;;;23.66;44.02;92826.44;5050497;28;20219;-70
2022/08/02 08:43:13;;;;;;;6.95;6.65;;;;;;;23.62;44.29;92825.63;5048734;28;20224;-69
2022/08/02 08:45:42;;;;;;;6.95;6.65;;;;;;;24.06;42.10;92827.91;5050690;28;20208;-70
2022/08/02 08:48:12;;;;;;;7.20;6.90;;;;;;;23.66;41.71;92831.78;5049176;28;20228;-68
2022/08/02 08:50:44;;;;;;;7.18;6.88;;;;;;;23.65;43.23;92824.13;5049294;28;20261;-68
2022/08/02 08:53:10;;;;;;;24.92;9.45;;;;;;;24.17;43.53;92826.22;5049038;28;20228;-69
2022/08/02 08:55:36;;;;;;;7.60;7.20;;;;;;;24.05;42.19;92813.06;5050598;28;20254;-69
2022/08/02 08:58:04;;;;;;;7.22;6.82;;;;;;;24.24;42.91;92823.63;5048871;28;20236;-70
2022/08/02 09:00:31;;;;;;;7.53;6.85;;;;;;;24.36;40.60;92820.81;5050623;28;20215;-69
2022/08/02 09:02:57;;;;;;;8.25;7.50;;;;;;;24.25;40.94;92812.59;5050214;28;21119;-69
2022/08/02 09:05:24;;;;;;;24.25;9.70;;;;;;;24.06;43.77;92823.38;5050294;28;20195;-70
2022/08/02 09:07:51;;;;;;;6.90;6.60;;;;;;;24.36;41.12;92820.81;5050075;28;20238;-71
2022/08/02 09:10:37;;;;;;;7.78;7.28;;;;;;;24.59;41.81;92818.84;5050079;28;20227;-70
2022/08/02 09:13:16;;;;;;;6.55;6.28;;;;;;;24.38;41.57;92823.84;5049971;28;20228;-69
2022/08/02 09:15:44;;;;;;;7.18;6.75;;;;;;;24.13;41.52;92814.69;5049588;28;20294;-70
2022/08/02 09:18:11;;;;;;;7.88;7.25;;;;;;;23.66;42.30;92826.44;5048821;28;20221;-71
2022/08/02 09:20:58;;;;;;;26.13;17.25;;;;;;;23.77;43.21;92828.53;5049612;28;20203;-70
2022/08/02 09:23:25;;;;;;;8.82;8.25;;;;;;;23.69;43.02;92831.06;5047365;28;20250;-69
2022/08/02 09:26:08;;;;;;;7.63;7.25;;;;;;;23.44;43.12;92827.16;5050029;28;20215;-70
2022/08/02 09:28:37;;;;;;;7.00;6.70;;;;;;;23.99;42.89;92827.78;5049436;28;20219;-70
2022/08/02 09:31:09;;;;;;;7.32;6.90;;;;;;;23.77;41.79;92828.53;5049910;28;20176;-70
2022/08/02 09:33:37;;;;;;;7.78;7.43;;;;;;;23.55;42.86;92830.81;5049706;28;20276;-69
2022/08/02 09:36:07;;;;;;;7.45;7.00;;;;;;;23.84;42.62;92828.66;5050392;28;20224;-71
2022/08/02 09:38:35;;;;;;;8.05;7.53;;;;;;;24.00;43.03;92811.44;5048233;28;20279;-72
2022/08/02 09:41:02;;;;;;;7.45;7.05;;;;;;;24.35;42.06;92821.91;5049153;28;20192;-70
2022/08/02 09:43:35;;;;;;;7.90;7.50;;;;;;;24.56;41.87;92830.25;5048432;28;20284;-71
2022/08/02 09:46:15;;;;;;;8.05;7.65;;;;;;;24.54;40.55;92813.81;5046905;28;20224;-71
2022/08/02 09:48:55;;;;;;;7.40;7.10;;;;;;;24.62;40.86;92818.88;5049327;28;20293;-71
2022/08/02 09:51:46;;;;;;;7.20;6.90;;;;;;;24.57;40.54;92819.22;5048376;28;20196;-72
2022/08/02 09:54:22;;;;;;;7.85;7.45;;;;;;;24.90;40.43;92813.22;5047390;28;20244;-71
2022/08/02 09:56:50;;;;;;;6.60;6.35;;;;;;;25.04;40.60;92795.44;5050024;28;20224;-72
2022/08/02 09:59:17;;;;;;;7.47;7.15;;;;;;;25.38;40.71;92806.19;5049357;28;20225;-71
2022/08/02 10:01:44;;;;;;;7.78;7.38;;;;;;;25.29;39.48;92788.50;5049523;28;20200;-71
2022/08/02 10:04:12;;;;;;;7.68;7.18;;;;;;;24.44;40.47;92801.06;5049152;28;20233;-71
2022/08/02 10:06:39;;;;;;;6.93;6.45;;;;;;;25.00;40.68;92796.53;5048866;28;20195;-71
2022/08/02 10:09:08;;;;;;;8.35;7.65;;;;;;;24.82;39.53;92790.22;5047666;28;20227;-72
2022/08/02 10:11:35;;;;;;;7.07;6.75;;;;;;;24.81;41.21;92796.69;5050421;28;20179;-69
2022/08/02 10:14:05;;;;;;;7.97;7.47;;;;;;;25.08;39.49;92804.28;5046172;28;20221;-69
2022/08/02 10:16:38;;;;;;;8.93;8.38;;;;;;;25.20;40.92;92808.63;5048387;28;20218;-68
2022/08/02 10:19:04;;;;;;;7.40;7.10;;;;;;;25.41;39.88;92803.56;5048274;28;20217;-70
2022/08/02 10:21:47;;;;;;;7.05;6.63;;;;;;;25.39;39.40;92781.78;5048414;28;20173;-72
2022/08/02 10:24:19;;;;;;;7.30;6.90;;;;;;;24.65;38.23;92788.03;5048416;28;20258;-72
2022/08/02 10:26:46;;;;;;;6.55;6.35;;;;;;;24.53;39.22;92806.94;5049482;28;20201;-71
2022/08/02 10:29:17;;;;;;;6.97;6.65;;;;;;;24.22;39.82;92783.97;5049374;28;20250;-72
2022/08/02 10:31:50;;;;;;;7.32;7.03;;;;;;;24.98;39.21;92791.56;5045471;28;20185;-73
2022/08/02 10:34:18;;;;;;;7.03;6.70;;;;;;;25.86;38.03;92795.25;5049617;28;20230;-72
2022/08/02 10:36:47;;;;;;;6.60;6.40;;;;;;;26.31;37.18;92794.91;5048065;28;20305;-73
2022/08/02 10:39:12;;;;;;;7.47;7.03;;;;;;;26.27;36.71;92799.44;5048509;28;20309;-72
2022/08/02 10:41:51;;;;;;;7.25;6.95;;;;;;;26.41;36.99;92804.91;5049127;28;20186;-73
2022/08/02 10:44:28;;;;;;;6.85;6.47;;;;;;;26.42;36.75;92794.97;5049115;28;20224;-72
2022/08/02 10:47:13;;;;;;;7.60;7.05;;;;;;;26.41;39.04;92806.84;5048883;28;20186;-72
2022/08/02 10:49:54;;;;;;;6.47;6.18;;;;;;;26.62;37.47;92799.72;5049626;28;20197;-72
2022/08/02 10:52:22;;;;;;;7.65;7.25;;;;;;;26.77;37.05;92799.84;5048194;28;20221;-73
2022/08/02 10:54:54;;;;;;;6.60;6.30;;;;;;;26.35;37.36;92778.88;5044741;28;20182;-73
2022/08/02 10:57:23;;;;;;;7.38;7.07;;;;;;;25.88;38.11;92794.88;5046989;28;20229;-74
2022/08/02 10:59:50;;;;;;;7.18;6.85;;;;;;;26.41;37.55;92791.53;5047474;28;20229;-71
2022/08/02 11:02:52;;;;;;;7.20;6.80;;;;;;;26.57;36.36;92784.00;5049073;28;20253;-72
2022/08/02 11:05:30;;;;;;;7.20;6.85;;;;;;;26.74;36.38;92794.09;4987656;28;20207;-73
2022/08/02 11:07:56;;;;;;;7.07;6.78;;;;;;;26.89;36.10;92792.25;5041333;28;20236;-73
2022/08/02 11:10:27;;;;;;;7.88;7.30;;;;;;;26.84;37.59;92794.50;5047714;28;20167;-74
2022/08/02 11:12:59;;;;;;;6.60;6.30;;;;;;;26.26;38.42;92797.91;5047885;28;20281;-72
2022/08/02 11:15:26;;;;;;;11.70;10.65;;;;;;;26.29;37.35;92781.13;5042965;28;20233;-72
2022/08/02 11:17:57;;;;;;;8.18;7.68;;;;;;;26.13;37.90;92793.97;5039907;28;20264;-72
2022/08/02 11:20:24;;;;;;;9.68;9.05;;;;;;;25.81;36.60;92787.56;5042633;28;20226;-72
2022/08/02 11:22:52;;;;;;;8.30;7.60;;;;;;;25.50;37.78;92790.69;5042272;28;20237;-70
2022/08/02 11:25:23;;;;;;;7.00;6.60;;;;;;;25.54;38.80;92788.81;5045049;28;20177;-70
2022/08/02 11:27:53;;;;;;;8.32;7.82;;;;;;;25.89;38.01;92791.06;5040561;28;20259;-70
2022/08/02 11:30:20;;;;;;;9.00;8.43;;;;;;;26.10;37.21;92775.97;5042361;28;20186;-69
2022/08/02 11:32:47;;;;;;;10.23;9.50;;;;;;;26.29;37.38;92786.47;5040998;28;20296;-72
2022/08/02 11:35:12;;;;;;;6.80;6.43;;;;;;;26.40;36.88;92773.94;5042967;28;20194;-71
2022/08/02 11:37:43;;;;;;;6.35;5.95;;;;;;;26.72;37.06;92793.69;5046536;28;20229;-71
2022/08/02 11:40:12;;;;;;;7.07;6.78;;;;;;;26.74;37.79;92778.00;5048155;28;20283;-71
2022/08/02 11:42:43;;;;;;;6.47;6.18;;;;;;;27.14;37.11;92795.06;5047301;28;20237;-71
2022/08/02 11:45:09;;;;;;;7.20;6.72;;;;;;;26.54;37.29;92784.75;5047703;28;20193;-72